sensor_id;sensor_type;location;lat;lon;timestamp;pressure;altitude;pressure_sealevel;temperature;humidity
15308;BME280;7755;52.208;6.964;2023-05-01T00:03:34;101458.22;;;10.88;81.86
15308;BME280;7755;52.208;6.964;2023-05-01T00:07:38;101456.16;;;10.83;82.02
15308;BME280;7755;52.208;6.964;2023-05-01T00:11:40;101455.78;;;10.80;81.98
15308;BME280;7755;52.208;6.964;2023-05-01T00:15:45;101442.63;;;10.77;82.48
15308;BME280;7755;52.208;6.964;2023-05-01T00:19:50;101440.59;;;10.72;82.53
15308;BME280;7755;52.208;6.964;2023-05-01T00:23:53;101426.59;;;10.69;82.98
15308;BME280;7755;52.208;6.964;2023-05-01T00:27:57;101423.25;;;10.66;83.41
15308;BME280;7755;52.208;6.964;2023-05-01T00:32:02;101428.09;;;10.64;83.72
15308;BME280;7755;52.208;6.964;2023-05-01T00:36:06;101413.28;;;10.60;84.17
15308;BME280;7755;52.208;6.964;2023-05-01T00:40:09;101417.47;;;10.56;84.03
15308;BME280;7755;52.208;6.964;2023-05-01T00:44:13;101416.06;;;10.54;84.25
15308;BME280;7755;52.208;6.964;2023-05-01T00:48:46;101402.53;;;10.47;84.37
15308;BME280;7755;52.208;6.964;2023-05-01T00:52:49;101398.59;;;10.43;84.93
15308;BME280;7755;52.208;6.964;2023-05-01T00:56:52;101394.41;;;10.41;85.05
15308;BME280;7755;52.208;6.964;2023-05-01T01:00:55;101383.38;;;10.35;85.20
15308;BME280;7755;52.208;6.964;2023-05-01T01:05:02;101381.34;;;10.31;85.45
15308;BME280;7755;52.208;6.964;2023-05-01T01:09:16;101365.69;;;10.26;85.78
15308;BME280;7755;52.208;6.964;2023-05-01T01:13:27;101370.94;;;10.21;85.88
15308;BME280;7755;52.208;6.964;2023-05-01T01:17:34;101368.25;;;10.15;86.34
15308;BME280;7755;52.208;6.964;2023-05-01T01:21:43;101354.31;;;10.11;86.65
15308;BME280;7755;52.208;6.964;2023-05-01T01:30:38;101352.06;;;10.01;86.70
15308;BME280;7755;52.208;6.964;2023-05-01T01:34:49;101353.94;;;10.01;87.04
15308;BME280;7755;52.208;6.964;2023-05-01T01:38:59;101347.09;;;9.98;87.44
15308;BME280;7755;52.208;6.964;2023-05-01T01:43:06;101334.34;;;9.99;87.97
15308;BME280;7755;52.208;6.964;2023-05-01T01:47:11;101336.44;;;9.97;88.21
15308;BME280;7755;52.208;6.964;2023-05-01T01:51:17;101325.78;;;9.95;88.37
15308;BME280;7755;52.208;6.964;2023-05-01T01:55:24;101314.91;;;9.95;88.37
15308;BME280;7755;52.208;6.964;2023-05-01T01:59:30;101310.34;;;9.96;88.64
15308;BME280;7755;52.208;6.964;2023-05-01T02:03:38;101308.22;;;9.98;88.27
15308;BME280;7755;52.208;6.964;2023-05-01T02:07:45;101307.63;;;9.96;87.83
15308;BME280;7755;52.208;6.964;2023-05-01T02:11:50;101304.28;;;9.94;88.01
15308;BME280;7755;52.208;6.964;2023-05-01T02:15:57;101297.78;;;9.95;87.76
15308;BME280;7755;52.208;6.964;2023-05-01T02:20:01;101297.78;;;9.95;87.38
15308;BME280;7755;52.208;6.964;2023-05-01T02:24:08;101287.59;;;9.90;87.43
15308;BME280;7755;52.208;6.964;2023-05-01T02:28:14;101286.16;;;9.88;87.21
15308;BME280;7755;52.208;6.964;2023-05-01T02:32:19;101277.84;;;9.82;87.17
15308;BME280;7755;52.208;6.964;2023-05-01T02:36:23;101275.34;;;9.81;87.38
15308;BME280;7755;52.208;6.964;2023-05-01T02:40:29;101265.34;;;9.75;86.91
15308;BME280;7755;52.208;6.964;2023-05-01T02:44:38;101265.22;;;9.70;87.13
15308;BME280;7755;52.208;6.964;2023-05-01T02:48:43;101256.66;;;9.66;87.42
15308;BME280;7755;52.208;6.964;2023-05-01T02:52:46;101256.50;;;9.61;87.36
15308;BME280;7755;52.208;6.964;2023-05-01T02:57:06;101242.78;;;9.56;87.79
15308;BME280;7755;52.208;6.964;2023-05-01T03:01:10;101233.00;;;9.48;87.53
15308;BME280;7755;52.208;6.964;2023-05-01T03:05:13;101235.09;;;9.46;87.84
15308;BME280;7755;52.208;6.964;2023-05-01T03:09:16;101227.41;;;9.43;87.56
15308;BME280;7755;52.208;6.964;2023-05-01T03:13:21;101229.72;;;9.40;88.26
15308;BME280;7755;52.208;6.964;2023-05-01T03:17:24;101227.22;;;9.38;88.16
15308;BME280;7755;52.208;6.964;2023-05-01T03:21:27;101230.16;;;9.37;87.89
15308;BME280;7755;52.208;6.964;2023-05-01T03:25:29;101217.84;;;9.34;88.50
15308;BME280;7755;52.208;6.964;2023-05-01T03:29:34;101210.53;;;9.35;88.37
15308;BME280;7755;52.208;6.964;2023-05-01T03:33:38;101202.63;;;9.33;88.35
15308;BME280;7755;52.208;6.964;2023-05-01T03:37:42;101211.81;;;9.32;88.71
15308;BME280;7755;52.208;6.964;2023-05-01T03:41:50;101206.41;;;9.32;88.78
15308;BME280;7755;52.208;6.964;2023-05-01T03:46:04;101203.09;;;9.30;89.23
15308;BME280;7755;52.208;6.964;2023-05-01T03:50:07;101196.00;;;9.29;89.46
15308;BME280;7755;52.208;6.964;2023-05-01T03:54:14;101204.97;;;9.29;89.39
15308;BME280;7755;52.208;6.964;2023-05-01T03:58:31;101196.00;;;9.29;89.05
15308;BME280;7755;52.208;6.964;2023-05-01T04:02:35;101189.75;;;9.28;89.13
15308;BME280;7755;52.208;6.964;2023-05-01T04:06:38;101192.00;;;9.32;89.19
15308;BME280;7755;52.208;6.964;2023-05-01T04:10:42;101187.81;;;9.36;89.47
15308;BME280;7755;52.208;6.964;2023-05-01T04:14:46;101190.28;;;9.37;89.14
15308;BME280;7755;52.208;6.964;2023-05-01T04:18:50;101187.13;;;9.40;88.93
15308;BME280;7755;52.208;6.964;2023-05-01T04:22:54;101174.19;;;9.42;88.44
15308;BME280;7755;52.208;6.964;2023-05-01T04:26:57;101177.50;;;9.44;88.65
15308;BME280;7755;52.208;6.964;2023-05-01T04:31:00;101178.94;;;9.47;88.35
15308;BME280;7755;52.208;6.964;2023-05-01T04:35:06;101173.91;;;9.50;87.93
15308;BME280;7755;52.208;6.964;2023-05-01T04:39:10;101172.25;;;9.49;87.91
15308;BME280;7755;52.208;6.964;2023-05-01T04:43:14;101178.50;;;9.50;88.19
15308;BME280;7755;52.208;6.964;2023-05-01T04:47:18;101175.94;;;9.55;88.62
15308;BME280;7755;52.208;6.964;2023-05-01T04:51:23;101178.81;;;9.60;87.99
15308;BME280;7755;52.208;6.964;2023-05-01T04:55:25;101179.03;;;9.58;87.66
15308;BME280;7755;52.208;6.964;2023-05-01T04:59:38;101175.28;;;9.60;87.73
15308;BME280;7755;52.208;6.964;2023-05-01T05:03:43;101174.63;;;9.64;87.29
15308;BME280;7755;52.208;6.964;2023-05-01T05:07:52;101173.09;;;9.68;87.32
15308;BME280;7755;52.208;6.964;2023-05-01T05:12:03;101178.69;;;9.73;87.06
15308;BME280;7755;52.208;6.964;2023-05-01T05:16:06;101181.34;;;9.80;86.58
15308;BME280;7755;52.208;6.964;2023-05-01T05:20:10;101183.78;;;9.88;86.30
15308;BME280;7755;52.208;6.964;2023-05-01T05:24:14;101175.41;;;9.90;85.76
15308;BME280;7755;52.208;6.964;2023-05-01T05:28:17;101180.56;;;9.98;85.29
15308;BME280;7755;52.208;6.964;2023-05-01T05:32:20;101173.31;;;10.10;85.07
15308;BME280;7755;52.208;6.964;2023-05-01T05:36:24;101176.56;;;10.19;84.46
15308;BME280;7755;52.208;6.964;2023-05-01T05:40:30;101171.44;;;10.29;83.86
15308;BME280;7755;52.208;6.964;2023-05-01T05:44:37;101171.28;;;10.42;82.82
15308;BME280;7755;52.208;6.964;2023-05-01T05:48:40;101175.72;;;10.55;81.28
15308;BME280;7755;52.208;6.964;2023-05-01T05:52:43;101169.28;;;10.68;80.73
15308;BME280;7755;52.208;6.964;2023-05-01T05:56:49;101157.56;;;10.85;80.81
15308;BME280;7755;52.208;6.964;2023-05-01T06:00:52;101159.94;;;10.93;79.61
15308;BME280;7755;52.208;6.964;2023-05-01T06:04:57;101161.16;;;10.98;78.51
15308;BME280;7755;52.208;6.964;2023-05-01T06:09:05;101162.91;;;11.04;77.73
15308;BME280;7755;52.208;6.964;2023-05-01T06:13:10;101164.16;;;11.19;77.42
15308;BME280;7755;52.208;6.964;2023-05-01T06:17:21;101147.84;;;11.31;77.11
15308;BME280;7755;52.208;6.964;2023-05-01T06:21:24;101155.16;;;11.31;75.35
15308;BME280;7755;52.208;6.964;2023-05-01T06:25:27;101150.69;;;11.36;75.92
15308;BME280;7755;52.208;6.964;2023-05-01T06:29:31;101147.03;;;11.42;75.56
15308;BME280;7755;52.208;6.964;2023-05-01T06:33:36;101145.50;;;11.46;75.54
15308;BME280;7755;52.208;6.964;2023-05-01T06:37:59;101150.09;;;11.58;75.48
15308;BME280;7755;52.208;6.964;2023-05-01T06:42:03;101147.88;;;11.66;74.70
15308;BME280;7755;52.208;6.964;2023-05-01T06:46:41;101143.97;;;11.74;74.26
15308;BME280;7755;52.208;6.964;2023-05-01T06:50:43;101145.53;;;11.82;74.34
15308;BME280;7755;52.208;6.964;2023-05-01T06:54:47;101146.59;;;11.81;74.09
15308;BME280;7755;52.208;6.964;2023-05-01T06:59:22;101140.28;;;11.92;75.47
15308;BME280;7755;52.208;6.964;2023-05-01T07:03:27;101143.38;;;11.95;74.13
15308;BME280;7755;52.208;6.964;2023-05-01T07:07:29;101139.81;;;12.07;74.91
15308;BME280;7755;52.208;6.964;2023-05-01T07:11:32;101137.75;;;12.25;74.69
15308;BME280;7755;52.208;6.964;2023-05-01T07:15:35;101135.56;;;12.39;73.81
15308;BME280;7755;52.208;6.964;2023-05-01T07:19:39;101141.81;;;12.51;73.20
15308;BME280;7755;52.208;6.964;2023-05-01T07:23:42;101139.06;;;12.63;72.85
15308;BME280;7755;52.208;6.964;2023-05-01T07:27:44;101132.22;;;12.77;72.82
15308;BME280;7755;52.208;6.964;2023-05-01T07:31:48;101134.69;;;13.07;73.01
15308;BME280;7755;52.208;6.964;2023-05-01T07:35:52;101137.09;;;13.54;71.52
15308;BME280;7755;52.208;6.964;2023-05-01T07:39:55;101135.16;;;13.88;69.30
15308;BME280;7755;52.208;6.964;2023-05-01T07:43:59;101135.03;;;14.00;67.73
15308;BME280;7755;52.208;6.964;2023-05-01T07:48:02;101130.56;;;14.11;67.49
15308;BME280;7755;52.208;6.964;2023-05-01T07:52:06;101124.81;;;14.12;67.88
15308;BME280;7755;52.208;6.964;2023-05-01T07:56:09;101120.88;;;14.25;68.48
15308;BME280;7755;52.208;6.964;2023-05-01T08:00:13;101120.91;;;14.47;67.89
15308;BME280;7755;52.208;6.964;2023-05-01T08:04:16;101132.34;;;14.66;67.54
15308;BME280;7755;52.208;6.964;2023-05-01T08:08:22;101126.53;;;14.89;64.80
15308;BME280;7755;52.208;6.964;2023-05-01T08:12:26;101125.53;;;15.27;64.46
15308;BME280;7755;52.208;6.964;2023-05-01T08:16:29;101111.91;;;15.75;63.25
15308;BME280;7755;52.208;6.964;2023-05-01T08:20:32;101112.72;;;16.28;60.90
15308;BME280;7755;52.208;6.964;2023-05-01T08:24:37;101112.91;;;16.79;59.08
15308;BME280;7755;52.208;6.964;2023-05-01T08:28:39;101103.06;;;17.24;56.83
15308;BME280;7755;52.208;6.964;2023-05-01T08:32:43;101105.47;;;17.66;56.00
15308;BME280;7755;52.208;6.964;2023-05-01T08:36:46;101110.28;;;18.25;54.41
15308;BME280;7755;52.208;6.964;2023-05-01T08:40:52;101099.06;;;18.71;52.56
15308;BME280;7755;52.208;6.964;2023-05-01T08:44:58;101110.81;;;19.21;50.81
15308;BME280;7755;52.208;6.964;2023-05-01T08:49:03;101095.22;;;19.69;49.21
15308;BME280;7755;52.208;6.964;2023-05-01T08:53:10;101094.44;;;20.11;48.58
15308;BME280;7755;52.208;6.964;2023-05-01T08:57:14;101097.09;;;20.64;47.57
15308;BME280;7755;52.208;6.964;2023-05-01T09:01:19;101093.13;;;20.70;46.47
15308;BME280;7755;52.208;6.964;2023-05-01T09:05:23;101083.91;;;20.80;46.87
15308;BME280;7755;52.208;6.964;2023-05-01T09:09:26;101085.03;;;20.93;43.88
15308;BME280;7755;52.208;6.964;2023-05-01T09:13:31;101081.56;;;20.50;44.35
15308;BME280;7755;52.208;6.964;2023-05-01T09:17:35;101082.31;;;20.31;44.99
15308;BME280;7755;52.208;6.964;2023-05-01T09:21:38;101091.81;;;20.68;45.71
15308;BME280;7755;52.208;6.964;2023-05-01T09:25:42;101091.88;;;21.01;45.36
15308;BME280;7755;52.208;6.964;2023-05-01T09:29:46;101085.06;;;21.25;45.17
15308;BME280;7755;52.208;6.964;2023-05-01T09:33:54;101086.38;;;21.47;43.84
15308;BME280;7755;52.208;6.964;2023-05-01T09:37:58;101071.50;;;21.29;43.87
15308;BME280;7755;52.208;6.964;2023-05-01T09:42:01;101067.66;;;21.25;43.37
15308;BME280;7755;52.208;6.964;2023-05-01T09:46:06;101059.38;;;21.71;43.34
15308;BME280;7755;52.208;6.964;2023-05-01T09:50:12;101063.03;;;22.08;43.25
15308;BME280;7755;52.208;6.964;2023-05-01T09:54:29;101068.34;;;22.46;43.07
15308;BME280;7755;52.208;6.964;2023-05-01T09:58:32;101065.72;;;22.27;42.73
15308;BME280;7755;52.208;6.964;2023-05-01T10:02:37;101062.06;;;22.54;42.53
15308;BME280;7755;52.208;6.964;2023-05-01T10:06:40;101061.47;;;22.79;41.91
15308;BME280;7755;52.208;6.964;2023-05-01T10:10:43;101059.38;;;22.99;40.81
15308;BME280;7755;52.208;6.964;2023-05-01T10:14:51;101055.06;;;23.15;40.84
15308;BME280;7755;52.208;6.964;2023-05-01T10:18:56;101058.31;;;22.72;40.82
15308;BME280;7755;52.208;6.964;2023-05-01T10:23:00;101058.50;;;22.76;40.93
15308;BME280;7755;52.208;6.964;2023-05-01T10:27:05;101052.53;;;23.27;40.48
15308;BME280;7755;52.208;6.964;2023-05-01T10:31:11;101042.28;;;23.36;40.47
15308;BME280;7755;52.208;6.964;2023-05-01T10:35:18;101060.13;;;23.13;39.37
15308;BME280;7755;52.208;6.964;2023-05-01T10:39:30;101046.00;;;22.42;39.82
15308;BME280;7755;52.208;6.964;2023-05-01T10:43:33;101044.28;;;22.05;41.49
15308;BME280;7755;52.208;6.964;2023-05-01T10:47:46;101041.03;;;21.89;41.45
15308;BME280;7755;52.208;6.964;2023-05-01T10:52:09;101048.28;;;21.71;42.22
15308;BME280;7755;52.208;6.964;2023-05-01T10:56:39;101043.25;;;21.60;42.29
15308;BME280;7755;52.208;6.964;2023-05-01T11:00:43;101038.94;;;21.67;42.18
15308;BME280;7755;52.208;6.964;2023-05-01T11:04:51;101036.59;;;21.61;42.15
15308;BME280;7755;52.208;6.964;2023-05-01T11:13:57;101034.53;;;21.52;42.97
15308;BME280;7755;52.208;6.964;2023-05-01T11:18:01;101031.75;;;21.39;42.57
15308;BME280;7755;52.208;6.964;2023-05-01T11:22:11;101026.47;;;21.56;42.59
15308;BME280;7755;52.208;6.964;2023-05-01T11:26:14;101029.63;;;21.91;42.33
15308;BME280;7755;52.208;6.964;2023-05-01T11:30:19;101023.31;;;22.40;41.38
15308;BME280;7755;52.208;6.964;2023-05-01T11:34:23;101013.97;;;22.72;40.84
15308;BME280;7755;52.208;6.964;2023-05-01T11:38:26;101021.16;;;22.96;39.95
15308;BME280;7755;52.208;6.964;2023-05-01T11:42:30;101005.94;;;23.38;39.17
15308;BME280;7755;52.208;6.964;2023-05-01T11:46:35;101002.50;;;23.72;39.15
15308;BME280;7755;52.208;6.964;2023-05-01T11:50:38;101011.53;;;23.95;38.21
15308;BME280;7755;52.208;6.964;2023-05-01T11:54:46;101001.69;;;23.72;38.24
15308;BME280;7755;52.208;6.964;2023-05-01T11:58:50;100999.72;;;23.72;38.47
15308;BME280;7755;52.208;6.964;2023-05-01T12:02:59;101001.00;;;23.66;38.57
15308;BME280;7755;52.208;6.964;2023-05-01T12:07:03;100995.16;;;23.76;38.15
15308;BME280;7755;52.208;6.964;2023-05-01T12:11:05;100995.81;;;23.90;37.55
15308;BME280;7755;52.208;6.964;2023-05-01T12:15:09;100997.03;;;24.07;36.99
15308;BME280;7755;52.208;6.964;2023-05-01T12:19:14;100996.50;;;23.96;37.15
15308;BME280;7755;52.208;6.964;2023-05-01T12:23:19;100985.38;;;23.87;37.23
15308;BME280;7755;52.208;6.964;2023-05-01T12:27:22;100996.53;;;24.13;38.19
15308;BME280;7755;52.208;6.964;2023-05-01T12:31:26;100986.38;;;24.00;37.56
15308;BME280;7755;52.208;6.964;2023-05-01T12:35:32;100986.00;;;23.84;37.72
15308;BME280;7755;52.208;6.964;2023-05-01T12:39:36;100995.53;;;23.92;38.23
15308;BME280;7755;52.208;6.964;2023-05-01T12:43:41;100999.28;;;24.05;36.62
15308;BME280;7755;52.208;6.964;2023-05-01T12:47:45;100989.03;;;24.31;35.36
15308;BME280;7755;52.208;6.964;2023-05-01T12:51:50;100981.66;;;24.09;35.72
15308;BME280;7755;52.208;6.964;2023-05-01T12:55:55;100997.50;;;24.00;36.28
15308;BME280;7755;52.208;6.964;2023-05-01T12:59:59;100985.25;;;24.10;36.05
15308;BME280;7755;52.208;6.964;2023-05-01T13:04:03;100975.09;;;23.88;36.37
15308;BME280;7755;52.208;6.964;2023-05-01T13:08:07;100979.84;;;23.56;36.63
15308;BME280;7755;52.208;6.964;2023-05-01T13:12:10;100972.91;;;23.36;37.01
15308;BME280;7755;52.208;6.964;2023-05-01T13:16:14;100962.00;;;23.31;38.12
15308;BME280;7755;52.208;6.964;2023-05-01T13:20:27;100966.13;;;23.11;37.93
15308;BME280;7755;52.208;6.964;2023-05-01T13:24:39;100958.63;;;23.12;37.93
15308;BME280;7755;52.208;6.964;2023-05-01T13:28:43;100967.66;;;22.95;37.12
15308;BME280;7755;52.208;6.964;2023-05-01T13:32:47;100968.22;;;22.83;37.61
15308;BME280;7755;52.208;6.964;2023-05-01T13:36:51;100953.44;;;22.88;36.62
15308;BME280;7755;52.208;6.964;2023-05-01T13:40:57;100949.38;;;22.94;37.21
15308;BME280;7755;52.208;6.964;2023-05-01T13:45:00;100952.63;;;22.87;38.09
15308;BME280;7755;52.208;6.964;2023-05-01T13:49:07;100968.47;;;22.73;37.68
15308;BME280;7755;52.208;6.964;2023-05-01T13:53:10;100963.50;;;22.61;36.91
15308;BME280;7755;52.208;6.964;2023-05-01T13:57:14;100953.81;;;22.50;37.68
15308;BME280;7755;52.208;6.964;2023-05-01T14:01:19;100964.75;;;22.55;37.06
15308;BME280;7755;52.208;6.964;2023-05-01T14:05:26;100968.16;;;22.30;40.12
15308;BME280;7755;52.208;6.964;2023-05-01T14:13:39;100968.22;;;21.89;41.11
15308;BME280;7755;52.208;6.964;2023-05-01T14:17:42;100971.00;;;21.75;41.84
15308;BME280;7755;52.208;6.964;2023-05-01T14:21:46;100974.63;;;21.48;41.45
15308;BME280;7755;52.208;6.964;2023-05-01T14:25:50;100967.53;;;21.28;42.05
15308;BME280;7755;52.208;6.964;2023-05-01T14:29:54;100964.63;;;21.33;42.08
15308;BME280;7755;52.208;6.964;2023-05-01T14:33:59;100966.31;;;21.48;41.57
15308;BME280;7755;52.208;6.964;2023-05-01T14:38:07;100964.66;;;21.74;40.81
15308;BME280;7755;52.208;6.964;2023-05-01T14:42:11;100958.09;;;21.70;40.88
15308;BME280;7755;52.208;6.964;2023-05-01T14:46:26;100966.19;;;21.39;40.87
15308;BME280;7755;52.208;6.964;2023-05-01T14:50:30;100958.06;;;21.15;41.54
15308;BME280;7755;52.208;6.964;2023-05-01T14:54:43;100959.88;;;21.20;40.72
15308;BME280;7755;52.208;6.964;2023-05-01T14:58:48;100965.69;;;21.51;40.89
15308;BME280;7755;52.208;6.964;2023-05-01T15:02:52;100967.22;;;21.57;40.72
15308;BME280;7755;52.208;6.964;2023-05-01T15:07:04;100965.00;;;21.26;40.36
15308;BME280;7755;52.208;6.964;2023-05-01T15:11:06;100961.72;;;21.11;40.41
15308;BME280;7755;52.208;6.964;2023-05-01T15:15:10;100965.28;;;20.65;40.64
15308;BME280;7755;52.208;6.964;2023-05-01T15:19:14;100969.63;;;20.52;40.90
15308;BME280;7755;52.208;6.964;2023-05-01T15:23:18;100971.88;;;20.31;40.12
15308;BME280;7755;52.208;6.964;2023-05-01T15:27:21;100973.38;;;20.24;40.36
15308;BME280;7755;52.208;6.964;2023-05-01T15:31:23;100967.53;;;20.25;40.27
15308;BME280;7755;52.208;6.964;2023-05-01T15:35:28;100969.19;;;20.26;40.07
15308;BME280;7755;52.208;6.964;2023-05-01T15:39:30;100966.28;;;20.36;39.60
15308;BME280;7755;52.208;6.964;2023-05-01T15:43:34;100973.00;;;20.49;38.84
15308;BME280;7755;52.208;6.964;2023-05-01T15:47:37;100982.03;;;20.36;38.76
15308;BME280;7755;52.208;6.964;2023-05-01T15:51:41;100987.91;;;20.29;39.54
15308;BME280;7755;52.208;6.964;2023-05-01T15:55:44;100990.69;;;20.29;40.11
15308;BME280;7755;52.208;6.964;2023-05-01T15:59:46;101006.03;;;20.16;40.77
15308;BME280;7755;52.208;6.964;2023-05-01T16:03:51;101002.44;;;19.97;41.02
15308;BME280;7755;52.208;6.964;2023-05-01T16:08:04;101004.84;;;19.85;41.83
15308;BME280;7755;52.208;6.964;2023-05-01T16:12:07;101010.47;;;19.75;42.09
15308;BME280;7755;52.208;6.964;2023-05-01T16:16:11;101007.06;;;19.59;42.56
15308;BME280;7755;52.208;6.964;2023-05-01T16:20:15;101007.38;;;19.52;43.24
15308;BME280;7755;52.208;6.964;2023-05-01T16:24:20;101012.00;;;19.57;44.55
15308;BME280;7755;52.208;6.964;2023-05-01T16:28:23;101019.69;;;19.36;45.71
15308;BME280;7755;52.208;6.964;2023-05-01T16:32:26;101026.94;;;19.27;45.69
15308;BME280;7755;52.208;6.964;2023-05-01T16:36:29;101028.75;;;19.13;46.15
15308;BME280;7755;52.208;6.964;2023-05-01T16:40:36;101032.47;;;19.27;46.57
15308;BME280;7755;52.208;6.964;2023-05-01T16:44:39;101044.91;;;19.24;47.64
15308;BME280;7755;52.208;6.964;2023-05-01T16:48:42;101048.34;;;19.11;49.05
15308;BME280;7755;52.208;6.964;2023-05-01T16:52:45;101057.84;;;18.90;50.04
15308;BME280;7755;52.208;6.964;2023-05-01T16:56:49;101067.41;;;18.63;51.12
15308;BME280;7755;52.208;6.964;2023-05-01T17:00:53;101069.91;;;18.54;52.49
15308;BME280;7755;52.208;6.964;2023-05-01T17:05:04;101068.06;;;18.45;54.03
15308;BME280;7755;52.208;6.964;2023-05-01T17:09:26;101074.13;;;18.42;54.16
15308;BME280;7755;52.208;6.964;2023-05-01T17:13:52;101075.84;;;18.33;55.07
15308;BME280;7755;52.208;6.964;2023-05-01T17:17:56;101081.91;;;18.30;55.56
15308;BME280;7755;52.208;6.964;2023-05-01T17:21:59;101095.69;;;18.30;56.01
15308;BME280;7755;52.208;6.964;2023-05-01T17:26:03;101093.81;;;18.15;56.43
15308;BME280;7755;52.208;6.964;2023-05-01T17:30:09;101095.84;;;17.89;57.34
15308;BME280;7755;52.208;6.964;2023-05-01T17:34:13;101098.88;;;17.82;58.34
15308;BME280;7755;52.208;6.964;2023-05-01T17:38:16;101111.00;;;17.56;58.60
15308;BME280;7755;52.208;6.964;2023-05-01T17:42:19;101104.97;;;17.43;59.02
15308;BME280;7755;52.208;6.964;2023-05-01T17:46:26;101111.84;;;17.31;59.75
15308;BME280;7755;52.208;6.964;2023-05-01T17:50:30;101114.31;;;17.42;59.60
15308;BME280;7755;52.208;6.964;2023-05-01T17:54:35;101120.66;;;17.48;59.79
15308;BME280;7755;52.208;6.964;2023-05-01T17:58:42;101122.28;;;17.49;60.13
15308;BME280;7755;52.208;6.964;2023-05-01T18:02:59;101120.38;;;17.29;61.39
15308;BME280;7755;52.208;6.964;2023-05-01T18:07:03;101126.69;;;17.30;61.92
15308;BME280;7755;52.208;6.964;2023-05-01T18:11:07;101124.22;;;17.28;62.03
15308;BME280;7755;52.208;6.964;2023-05-01T18:15:10;101131.06;;;17.26;62.23
15308;BME280;7755;52.208;6.964;2023-05-01T18:19:17;101144.56;;;17.22;63.11
15308;BME280;7755;52.208;6.964;2023-05-01T18:23:20;101146.47;;;17.16;64.43
15308;BME280;7755;52.208;6.964;2023-05-01T18:27:26;101147.56;;;16.95;66.34
15308;BME280;7755;52.208;6.964;2023-05-01T18:31:30;101170.31;;;16.85;67.85
15308;BME280;7755;52.208;6.964;2023-05-01T18:35:40;101157.69;;;16.84;67.93
15308;BME280;7755;52.208;6.964;2023-05-01T18:39:44;101166.44;;;16.71;68.05
15308;BME280;7755;52.208;6.964;2023-05-01T18:43:48;101170.28;;;16.75;67.31
15308;BME280;7755;52.208;6.964;2023-05-01T18:48:03;101168.31;;;16.60;66.30
15308;BME280;7755;52.208;6.964;2023-05-01T18:52:07;101172.66;;;16.56;66.10
15308;BME280;7755;52.208;6.964;2023-05-01T18:56:37;101177.56;;;16.44;65.56
15308;BME280;7755;52.208;6.964;2023-05-01T19:05:20;101188.91;;;16.10;65.75
15308;BME280;7755;52.208;6.964;2023-05-01T19:09:31;101208.06;;;16.00;66.37
15308;BME280;7755;52.208;6.964;2023-05-01T19:13:37;101198.16;;;15.94;67.32
15308;BME280;7755;52.208;6.964;2023-05-01T19:17:41;101213.97;;;15.82;68.58
15308;BME280;7755;52.208;6.964;2023-05-01T19:21:51;101209.25;;;15.77;69.07
15308;BME280;7755;52.208;6.964;2023-05-01T19:26:10;101232.50;;;15.70;70.05
15308;BME280;7755;52.208;6.964;2023-05-01T19:30:27;101227.50;;;15.62;71.40
15308;BME280;7755;52.208;6.964;2023-05-01T19:34:46;101241.66;;;15.53;72.04
15308;BME280;7755;52.208;6.964;2023-05-01T19:39:03;101254.16;;;15.44;72.12
15308;BME280;7755;52.208;6.964;2023-05-01T19:43:23;101251.41;;;15.44;72.30
15308;BME280;7755;52.208;6.964;2023-05-01T19:47:26;101256.28;;;15.37;72.38
15308;BME280;7755;52.208;6.964;2023-05-01T19:51:29;101257.84;;;15.28;73.01
15308;BME280;7755;52.208;6.964;2023-05-01T19:55:32;101266.59;;;15.25;73.23
15308;BME280;7755;52.208;6.964;2023-05-01T19:59:36;101273.53;;;15.33;72.42
15308;BME280;7755;52.208;6.964;2023-05-01T20:03:41;101277.78;;;15.23;73.52
15308;BME280;7755;52.208;6.964;2023-05-01T20:07:44;101282.97;;;15.20;74.92
15308;BME280;7755;52.208;6.964;2023-05-01T20:11:46;101280.06;;;15.05;75.98
15308;BME280;7755;52.208;6.964;2023-05-01T20:15:51;101290.19;;;15.04;76.88
15308;BME280;7755;52.208;6.964;2023-05-01T20:19:53;101281.66;;;15.00;77.18
15308;BME280;7755;52.208;6.964;2023-05-01T20:23:57;101281.03;;;14.93;77.86
15308;BME280;7755;52.208;6.964;2023-05-01T20:27:59;101283.00;;;14.98;78.04
15308;BME280;7755;52.208;6.964;2023-05-01T20:32:05;101280.81;;;15.00;78.15
15308;BME280;7755;52.208;6.964;2023-05-01T20:36:07;101281.38;;;15.02;78.46
15308;BME280;7755;52.208;6.964;2023-05-01T20:40:11;101280.56;;;15.01;78.67
15308;BME280;7755;52.208;6.964;2023-05-01T20:44:14;101290.69;;;15.01;78.93
15308;BME280;7755;52.208;6.964;2023-05-01T20:48:18;101296.91;;;14.96;79.39
15308;BME280;7755;52.208;6.964;2023-05-01T20:52:22;101292.50;;;14.90;80.58
15308;BME280;7755;52.208;6.964;2023-05-01T20:56:24;101301.28;;;14.92;80.29
15308;BME280;7755;52.208;6.964;2023-05-01T21:00:27;101305.31;;;14.90;80.84
15308;BME280;7755;52.208;6.964;2023-05-01T21:04:31;101301.53;;;14.91;81.58
15308;BME280;7755;52.208;6.964;2023-05-01T21:08:34;101310.16;;;14.83;82.78
15308;BME280;7755;52.208;6.964;2023-05-01T21:12:37;101315.91;;;14.81;83.84
15308;BME280;7755;52.208;6.964;2023-05-01T21:16:40;101320.09;;;14.67;85.00
15308;BME280;7755;52.208;6.964;2023-05-01T21:20:45;101317.41;;;14.50;87.48
15308;BME280;7755;52.208;6.964;2023-05-01T21:24:51;101329.31;;;14.44;88.45
15308;BME280;7755;52.208;6.964;2023-05-01T21:28:54;101329.41;;;14.32;89.85
15308;BME280;7755;52.208;6.964;2023-05-01T21:32:59;101330.09;;;14.23;90.88
15308;BME280;7755;52.208;6.964;2023-05-01T21:37:03;101333.66;;;14.23;90.67
15308;BME280;7755;52.208;6.964;2023-05-01T21:41:07;101335.78;;;14.21;90.82
15308;BME280;7755;52.208;6.964;2023-05-01T21:45:12;101346.22;;;14.07;92.70
15308;BME280;7755;52.208;6.964;2023-05-01T21:49:15;101334.06;;;13.98;93.70
15308;BME280;7755;52.208;6.964;2023-05-01T21:53:26;101344.06;;;13.92;94.41
15308;BME280;7755;52.208;6.964;2023-05-01T21:57:30;101346.28;;;13.79;95.47
15308;BME280;7755;52.208;6.964;2023-05-01T22:01:33;101350.88;;;13.61;97.00
15308;BME280;7755;52.208;6.964;2023-05-01T22:05:35;101353.28;;;13.58;97.69